createdAt,value
2018-01-20T00:00:37.409Z,83.89
2018-01-20T00:01:37.375Z,85.03
2018-01-20T00:03:30.692Z,84.27
2018-01-20T00:04:30.669Z,82.37
2018-01-20T00:06:23.502Z,85.78
2018-01-20T00:07:23.464Z,84.61
2018-01-20T00:09:16.776Z,83.98
2018-01-20T00:10:17.138Z,85.78
2018-01-20T00:12:09.730Z,88.16
2018-01-20T00:13:09.561Z,87.77
2018-01-20T00:15:02.609Z,86.55
2018-01-20T00:16:02.567Z,87.02
2018-01-20T00:17:55.190Z,84.55
2018-01-20T00:18:55.418Z,86.07
2018-01-20T00:20:47.982Z,87.21
2018-01-20T00:21:47.952Z,86.64
2018-01-20T00:23:40.788Z,87.59
2018-01-20T00:24:40.746Z,88.44
2018-01-20T00:26:33.570Z,85.22
2018-01-20T00:27:33.545Z,86.26
2018-01-20T00:29:26.783Z,85.88
2018-01-20T00:30:26.340Z,87.21
2018-01-20T00:32:19.167Z,87.02
2018-01-20T00:33:19.138Z,86.74
2018-01-20T00:35:12.466Z,88.25
2018-01-20T00:36:12.434Z,87.21
2018-01-20T00:38:05.249Z,88.25
2018-01-20T00:39:05.226Z,90.15
2018-01-20T00:40:58.060Z,90.15
2018-01-20T00:41:58.020Z,88.25
2018-01-20T00:43:50.862Z,90.62
2018-01-20T00:44:50.824Z,89.39
2018-01-20T00:46:44.148Z,91.85
2018-01-20T00:47:44.118Z,91.47
2018-01-20T00:49:37.431Z,90.91
2018-01-20T00:50:37.403Z,91.38
2018-01-20T00:52:30.239Z,91.19
2018-01-20T00:53:30.209Z,92.90
2018-01-20T00:55:23.024Z,94.13
2018-01-20T00:56:22.998Z,94.60
2018-01-20T00:58:15.840Z,94.42
2018-01-20T00:59:15.917Z,94.04
2018-01-20T01:01:08.623Z,94.89
2018-01-20T01:02:08.963Z,96.50
2018-01-20T01:04:01.435Z,94.23
2018-01-20T01:05:01.505Z,96.12
2018-01-20T01:06:54.226Z,96.31
2018-01-20T01:07:54.193Z,97.73
2018-01-20T01:09:47.030Z,94.23
2018-01-20T01:10:46.991Z,94.04
2018-01-20T01:12:39.813Z,95.07
2018-01-20T01:13:39.791Z,94.60
2018-01-20T01:15:32.617Z,96.31
2018-01-20T01:16:32.583Z,96.12
2018-01-20T01:18:25.410Z,94.98
2018-01-20T01:19:25.382Z,93.18
2018-01-20T01:21:18.218Z,92.90
2018-01-20T01:22:18.183Z,91.47
2018-01-20T01:24:11.495Z,91.66
2018-01-20T01:25:11.473Z,90.34
2018-01-20T01:27:04.305Z,87.83
2018-01-20T01:28:04.264Z,87.83
2018-01-20T01:29:57.090Z,86.60
2018-01-20T01:30:57.063Z,85.08
2018-01-20T01:32:49.900Z,80.06
2018-01-20T01:33:49.860Z,76.46
2018-01-20T01:35:42.722Z,76.27
2018-01-20T01:36:42.666Z,75.57
2018-01-20T01:38:35.507Z,73.11
2018-01-20T01:39:35.474Z,71.97
2018-01-20T01:41:28.292Z,71.50
2018-01-20T01:42:28.263Z,71.88
2018-01-20T01:44:21.593Z,71.40
2018-01-20T01:45:21.561Z,70.36
2018-01-20T01:47:14.387Z,70.36
2018-01-20T01:48:14.360Z,71.55
2018-01-20T01:50:07.202Z,69.03
2018-01-20T01:51:07.167Z,68.84
2018-01-20T01:52:59.999Z,70.55
2018-01-20T01:53:59.968Z,67.90
2018-01-20T01:55:52.801Z,68.94
2018-01-20T01:56:52.758Z,68.33
2018-01-20T01:58:45.578Z,67.58
2018-01-20T01:59:45.554Z,67.86
2018-01-20T02:01:38.386Z,68.33
2018-01-20T02:02:38.347Z,69.00
2018-01-20T02:04:31.177Z,68.33
2018-01-20T02:05:31.149Z,69.19
2018-01-20T02:07:23.979Z,67.20
2018-01-20T02:08:23.939Z,68.33
2018-01-20T02:10:16.764Z,67.39
2018-01-20T02:11:16.736Z,66.16
2018-01-20T02:13:09.570Z,64.36
2018-01-20T02:14:09.536Z,64.55
2018-01-20T02:16:02.393Z,59.91
2018-01-20T02:17:02.328Z,59.44
2018-01-20T02:18:55.160Z,56.98
2018-01-20T02:19:55.125Z,56.79
2018-01-20T02:21:47.955Z,55.84
2018-01-20T02:22:47.919Z,54.52
2018-01-20T02:24:40.734Z,52.53
2018-01-20T02:25:40.715Z,52.06
2018-01-20T02:27:33.552Z,49.76
2018-01-20T02:28:33.511Z,49.79
2018-01-20T02:30:26.332Z,48.46
2018-01-20T02:31:26.305Z,48.27
2018-01-20T02:33:19.139Z,44.86
2018-01-20T02:34:19.099Z,43.82
2018-01-20T02:36:11.923Z,42.11
2018-01-20T02:37:11.896Z,41.83
2018-01-20T02:39:04.725Z,42.02
2018-01-20T02:40:04.686Z,42.50
2018-01-20T02:41:57.508Z,42.40
2018-01-20T02:42:57.474Z,41.93
2018-01-20T02:44:50.310Z,41.64
2018-01-20T02:45:50.271Z,41.64
2018-01-20T02:47:43.093Z,42.50
2018-01-20T02:48:43.064Z,42.40
2018-01-20T02:50:35.899Z,40.22
2018-01-20T02:51:35.856Z,40.03
2018-01-20T02:53:28.687Z,37.67
2018-01-20T02:54:28.657Z,37.48
2018-01-20T02:56:21.496Z,35.87
2018-01-20T02:57:21.461Z,35.87
2018-01-20T02:59:14.277Z,36.91
2018-01-20T03:00:14.246Z,38.52
2018-01-20T03:02:07.081Z,37.48
2018-01-20T03:03:07.040Z,36.44
2018-01-20T03:04:59.856Z,36.82
2018-01-20T03:05:59.834Z,36.82
2018-01-20T03:07:53.658Z,37.86
2018-01-20T03:08:53.618Z,37.76
2018-01-20T03:10:46.445Z,37.01
2018-01-20T03:11:46.416Z,37.29
2018-01-20T03:13:39.249Z,37.76
2018-01-20T03:14:39.212Z,37.95
2018-01-20T03:16:32.039Z,37.86
2018-01-20T03:17:32.016Z,38.05
2018-01-20T03:19:24.859Z,38.33
2018-01-20T03:20:24.804Z,38.14
2018-01-20T03:22:17.626Z,38.43
2018-01-20T03:23:17.595Z,37.29
2018-01-20T03:25:10.432Z,37.29
2018-01-20T03:26:10.389Z,37.01
2018-01-20T03:28:03.212Z,36.44
2018-01-20T03:29:03.185Z,36.25
2018-01-20T03:30:56.014Z,36.35
2018-01-20T03:31:55.976Z,36.06
2018-01-20T03:33:48.800Z,35.68
2018-01-20T03:34:48.777Z,35.77
2018-01-20T03:36:41.604Z,35.11
2018-01-20T03:37:41.570Z,35.21
2018-01-20T03:39:34.389Z,34.74
2018-01-20T03:40:34.361Z,34.92
2018-01-20T03:42:27.203Z,35.77
2018-01-20T03:43:27.162Z,35.96
2018-01-20T03:45:19.998Z,36.35
2018-01-20T03:46:19.963Z,36.44
2018-01-20T03:48:12.775Z,37.48
2018-01-20T03:49:12.751Z,37.50
2018-01-20T03:51:05.583Z,38.62
2018-01-20T03:52:05.548Z,38.45
2018-01-20T03:53:58.375Z,38.92
2018-01-20T03:54:58.346Z,38.82
2018-01-20T03:56:51.187Z,39.29
2018-01-20T03:57:51.141Z,40.81
2018-01-20T03:59:43.969Z,40.81
2018-01-20T04:00:43.944Z,40.91
2018-01-20T04:02:36.772Z,42.43
2018-01-20T04:03:36.734Z,41.28
2018-01-20T04:05:29.556Z,42.43
2018-01-20T04:06:29.529Z,42.43
2018-01-20T04:08:22.367Z,43.08
2018-01-20T04:09:22.322Z,42.43
2018-01-20T04:11:15.145Z,43.08
2018-01-20T04:12:15.115Z,43.56
2018-01-20T04:14:07.956Z,45.36
2018-01-20T04:15:07.909Z,46.31
2018-01-20T04:17:00.744Z,46.88
2018-01-20T04:18:00.710Z,46.50
2018-01-20T04:19:53.559Z,45.93
2018-01-20T04:20:53.501Z,46.88
2018-01-20T04:22:46.328Z,44.70
2018-01-20T04:23:46.299Z,45.74
2018-01-20T04:25:39.131Z,43.65
2018-01-20T04:26:39.097Z,45.64
2018-01-20T04:28:31.911Z,45.17
2018-01-20T04:29:31.880Z,46.31
2018-01-20T04:31:24.715Z,45.36
2018-01-20T04:32:24.672Z,45.64
2018-01-20T04:34:17.497Z,44.22
2018-01-20T04:35:17.472Z,44.13
2018-01-20T04:37:10.305Z,44.32
2018-01-20T04:38:10.261Z,43.94
2018-01-20T04:40:03.081Z,44.51
2018-01-20T04:41:03.060Z,43.84
2018-01-20T04:42:55.904Z,46.12
2018-01-20T04:43:55.867Z,44.41
2018-01-20T04:45:48.682Z,45.45
2018-01-20T04:46:48.656Z,44.79
2018-01-20T04:48:41.488Z,47.72
2018-01-20T04:49:41.454Z,47.25
2018-01-20T04:51:34.276Z,46.69
2018-01-20T04:52:34.244Z,46.31
2018-01-20T04:54:27.095Z,46.31
2018-01-20T04:55:27.047Z,46.21
2018-01-20T04:57:19.869Z,47.06
2018-01-20T04:58:19.841Z,48.20
2018-01-20T05:00:12.674Z,46.99
2018-01-20T05:01:12.634Z,47.47
2018-01-20T05:03:05.451Z,47.44
2018-01-20T05:04:05.428Z,47.91
2018-01-20T05:05:58.258Z,47.53
2018-01-20T05:06:58.220Z,46.14
2018-01-20T05:08:51.045Z,43.96
2018-01-20T05:09:51.016Z,45.74
2018-01-20T05:11:43.843Z,45.48
2018-01-20T05:12:43.809Z,45.57
2018-01-20T05:14:36.630Z,46.99
2018-01-20T05:15:36.608Z,45.29
2018-01-20T05:17:29.435Z,43.18
2018-01-20T05:18:29.400Z,42.61
2018-01-20T05:20:22.216Z,42.44
2018-01-20T05:21:22.185Z,43.08
2018-01-20T05:23:15.030Z,43.30
2018-01-20T05:24:14.992Z,42.92
2018-01-20T05:26:07.811Z,43.68
2018-01-20T05:27:07.787Z,43.20
2018-01-20T05:29:00.618Z,44.53
2018-01-20T05:30:00.579Z,45.10
2018-01-20T05:31:53.403Z,45.57
2018-01-20T05:32:53.375Z,45.76
2018-01-20T05:34:46.696Z,45.00
2018-01-20T05:35:46.665Z,44.32
2018-01-20T05:37:39.481Z,44.72
2018-01-20T05:38:39.458Z,46.04
2018-01-20T05:40:32.292Z,45.76
2018-01-20T05:41:32.257Z,46.59
2018-01-20T05:43:25.079Z,45.29
2018-01-20T05:44:25.052Z,46.88
2018-01-20T05:46:17.882Z,45.00
2018-01-20T05:47:17.846Z,46.33
2018-01-20T05:49:10.678Z,46.04
2018-01-20T05:50:10.639Z,46.99
2018-01-20T05:52:03.462Z,48.32
2018-01-20T05:53:03.439Z,50.12
2018-01-20T05:54:56.280Z,49.46
2018-01-20T05:55:56.241Z,51.26
2018-01-20T05:57:49.565Z,50.38
2018-01-20T05:58:49.540Z,49.74
2018-01-20T06:00:42.371Z,50.97
2018-01-20T06:01:42.333Z,50.38
2018-01-20T06:03:35.154Z,50.40
2018-01-20T06:04:35.132Z,50.12
2018-01-20T06:06:27.961Z,49.36
2018-01-20T06:07:27.932Z,49.27
2018-01-20T06:09:20.747Z,50.88
2018-01-20T06:10:20.716Z,51.64
2018-01-20T06:12:13.558Z,51.35
2018-01-20T06:13:13.514Z,51.82
2018-01-20T06:15:06.341Z,52.58
2018-01-20T06:16:06.316Z,53.06
2018-01-20T06:17:59.156Z,52.96
2018-01-20T06:18:59.114Z,53.44
2018-01-20T06:20:51.939Z,52.58
2018-01-20T06:21:51.905Z,51.82
2018-01-20T06:23:44.742Z,52.58
2018-01-20T06:24:44.706Z,51.64
2018-01-20T06:26:37.524Z,53.25
2018-01-20T06:27:37.498Z,54.28
2018-01-20T06:29:30.340Z,54.67
2018-01-20T06:30:30.298Z,54.19
2018-01-20T06:32:23.127Z,55.62
2018-01-20T06:33:23.095Z,54.47
2018-01-20T06:35:15.927Z,52.96
2018-01-20T06:36:15.892Z,54.10
2018-01-20T06:38:08.714Z,53.72
2018-01-20T06:39:08.686Z,53.63
2018-01-20T06:41:01.523Z,52.58
2018-01-20T06:42:01.486Z,52.58
2018-01-20T06:43:54.801Z,53.81
2018-01-20T06:44:54.775Z,53.44
2018-01-20T06:46:47.618Z,52.20
2018-01-20T06:47:47.578Z,53.44
2018-01-20T06:49:40.405Z,54.00
2018-01-20T06:50:40.382Z,53.72
2018-01-20T06:52:33.216Z,53.25
2018-01-20T06:53:33.175Z,53.06
2018-01-20T06:55:25.996Z,52.11
2018-01-20T06:56:25.969Z,51.82
2018-01-20T06:58:18.803Z,52.77
2018-01-20T06:59:18.762Z,52.39
2018-01-20T07:01:11.586Z,51.54
2018-01-20T07:02:11.559Z,52.11
2018-01-20T07:04:04.392Z,53.81
2018-01-20T07:05:04.354Z,52.48
2018-01-20T07:06:57.180Z,51.92
2018-01-20T07:07:57.151Z,52.20
2018-01-20T07:09:50.484Z,54.76
2018-01-20T07:10:50.445Z,54.67
2018-01-20T07:12:43.272Z,55.14
2018-01-20T07:13:43.248Z,54.28
2018-01-20T07:15:36.581Z,53.63
2018-01-20T07:16:36.535Z,53.25
2018-01-20T07:18:29.362Z,55.07
2018-01-20T07:19:29.326Z,56.02
2018-01-20T07:21:22.163Z,56.21
2018-01-20T07:22:22.127Z,55.07
2018-01-20T07:24:15.009Z,53.65
2018-01-20T07:25:14.924Z,53.94
2018-01-20T07:27:08.248Z,52.98
2018-01-20T07:28:08.214Z,55.90
2018-01-20T07:30:01.724Z,54.79
2018-01-20T07:31:01.551Z,57.64
2018-01-20T07:32:54.440Z,58.48
2018-01-20T07:33:54.541Z,58.48
2018-01-20T07:35:47.206Z,57.64
2018-01-20T07:36:47.153Z,58.11
2018-01-20T07:38:39.998Z,58.11
2018-01-20T07:39:39.969Z,57.06
2018-01-20T07:41:33.288Z,59.91
2018-01-20T07:42:33.308Z,60.67
2018-01-20T07:44:26.638Z,58.96
2018-01-20T07:45:26.601Z,59.44
2018-01-20T07:47:19.480Z,61.99
2018-01-20T07:48:19.423Z,60.38
2018-01-20T07:50:12.319Z,61.05
2018-01-20T07:51:12.217Z,60.67
2018-01-20T07:53:05.053Z,59.91
2018-01-20T07:54:05.013Z,59.34
2018-01-20T07:55:57.844Z,61.61
2018-01-20T07:56:57.813Z,62.75
2018-01-20T07:58:51.133Z,62.66
2018-01-20T07:59:51.108Z,62.28
2018-01-20T08:01:44.479Z,63.70
2018-01-20T08:02:44.396Z,62.75
2018-01-20T08:04:37.218Z,66.07
2018-01-20T08:05:37.194Z,66.64
2018-01-20T08:07:30.024Z,65.78
2018-01-20T08:08:29.991Z,65.50
2018-01-20T08:10:23.310Z,67.30
2018-01-20T08:11:23.288Z,68.15
2018-01-20T08:13:16.124Z,67.21
2018-01-20T08:14:16.088Z,63.60
2018-01-20T08:16:08.912Z,67.21
2018-01-20T08:17:08.882Z,66.74
2018-01-20T08:19:01.714Z,68.06
2018-01-20T08:20:01.673Z,67.40
2018-01-20T08:21:54.501Z,68.15
2018-01-20T08:22:54.472Z,67.77
2018-01-20T08:24:47.311Z,68.91
2018-01-20T08:25:47.266Z,68.91
2018-01-20T08:27:40.099Z,72.80
2018-01-20T08:28:40.066Z,72.33
2018-01-20T08:30:32.907Z,72.23
2018-01-20T08:31:32.869Z,71.47
2018-01-20T08:33:26.180Z,71.95
2018-01-20T08:34:26.156Z,69.57
2018-01-20T08:36:19.499Z,72.36
2018-01-20T08:37:19.459Z,74.54
2018-01-20T08:39:12.773Z,74.07
2018-01-20T08:40:12.747Z,74.35
2018-01-20T08:42:06.076Z,74.79
2018-01-20T08:43:06.036Z,74.73
2018-01-20T08:44:59.370Z,76.25
2018-01-20T08:45:59.332Z,77.96
2018-01-20T08:47:52.683Z,75.49
2018-01-20T08:48:52.635Z,76.06
2018-01-20T08:50:45.957Z,77.39
2018-01-20T08:51:45.931Z,76.82
2018-01-20T08:53:39.273Z,77.29
2018-01-20T08:54:39.233Z,80.33
2018-01-20T08:56:32.060Z,77.48
2018-01-20T08:57:32.025Z,80.04
2018-01-20T08:59:25.396Z,81.18
2018-01-20T09:00:25.360Z,80.99
2018-01-20T09:02:18.229Z,81.27
2018-01-20T09:03:18.151Z,81.37
2018-01-20T09:05:12.484Z,78.05
2018-01-20T09:06:12.445Z,81.85
2018-01-20T09:08:05.780Z,78.43
2018-01-20T09:09:05.755Z,78.15
2018-01-20T09:10:58.723Z,78.15
2018-01-20T09:11:58.562Z,77.39
2018-01-20T09:13:51.386Z,72.42
2018-01-20T09:14:51.357Z,71.76
2018-01-20T09:16:44.219Z,67.40
2018-01-20T09:17:44.169Z,68.82
2018-01-20T09:19:36.990Z,64.08
2018-01-20T09:20:36.969Z,62.85
2018-01-20T09:22:30.292Z,64.65
2018-01-20T09:23:30.256Z,64.46
2018-01-20T09:25:23.581Z,65.97
2018-01-20T09:26:23.553Z,60.95
2018-01-20T09:28:16.893Z,60.76
2018-01-20T09:29:16.851Z,63.23
2018-01-20T09:31:10.261Z,63.70
2018-01-20T09:32:10.234Z,65.69
2018-01-20T09:34:03.074Z,64.17
2018-01-20T09:35:03.042Z,67.87
2018-01-20T09:36:55.878Z,64.74
2018-01-20T09:37:55.839Z,63.13
2018-01-20T09:39:48.676Z,67.30
2018-01-20T09:40:48.637Z,64.84
2018-01-20T09:42:41.458Z,62.66
2018-01-20T09:43:41.431Z,61.52
2018-01-20T09:45:39.882Z,64.74
2018-01-20T09:46:34.738Z,62.75
2018-01-20T09:48:28.065Z,62.37
2018-01-20T09:49:28.041Z,65.50
2018-01-20T09:51:20.877Z,64.55
2018-01-20T09:52:20.835Z,64.36
2018-01-20T09:54:14.154Z,61.52
2018-01-20T09:55:14.134Z,61.52
2018-01-20T09:57:07.532Z,62.47
2018-01-20T09:58:07.493Z,64.68
2018-01-20T10:00:00.955Z,63.73
2018-01-20T10:01:00.785Z,65.72
2018-01-20T10:02:54.129Z,65.63
2018-01-20T10:03:54.076Z,62.31
2018-01-20T10:05:47.400Z,63.17
2018-01-20T10:06:47.374Z,67.62
2018-01-20T10:08:40.703Z,65.72
2018-01-20T10:09:40.668Z,68.66
2018-01-20T10:11:34.053Z,68.10
2018-01-20T10:12:33.972Z,68.10
2018-01-20T10:14:27.343Z,65.72
2018-01-20T10:15:27.304Z,66.77
2018-01-20T10:17:20.633Z,67.14
2018-01-20T10:18:20.610Z,70.09
2018-01-20T10:20:13.941Z,70.09
2018-01-20T10:21:13.948Z,69.99
2018-01-20T10:23:07.241Z,70.56
2018-01-20T10:24:07.215Z,69.04
2018-01-20T10:26:00.561Z,68.29
2018-01-20T10:27:00.516Z,71.70
2018-01-20T10:28:53.854Z,72.49
2018-01-20T10:29:53.826Z,73.16
2018-01-20T10:31:47.170Z,74.11
2018-01-20T10:32:47.128Z,73.54
2018-01-20T10:34:40.474Z,76.10
2018-01-20T10:35:40.423Z,75.24
2018-01-20T10:37:33.783Z,74.30
2018-01-20T10:38:33.728Z,75.43
2018-01-20T10:40:27.252Z,76.29
2018-01-20T10:41:27.226Z,75.15
2018-01-20T10:43:20.575Z,76.67
2018-01-20T10:44:20.524Z,76.86
2018-01-20T10:46:14.848Z,78.95
2018-01-20T10:47:14.828Z,80.27
2018-01-20T10:49:08.166Z,80.27
2018-01-20T10:50:08.137Z,83.31
2018-01-20T10:52:01.457Z,79.61
2018-01-20T10:53:01.485Z,78.19
2018-01-20T10:54:55.675Z,78.28
2018-01-20T10:55:55.636Z,77.90
2018-01-20T10:57:49.943Z,78.09
2018-01-20T10:58:49.303Z,79.61
2018-01-20T11:00:42.041Z,79.90
2018-01-20T11:01:41.820Z,83.40
2018-01-20T11:03:35.136Z,81.88
2018-01-20T11:04:35.131Z,82.65
2018-01-20T11:06:29.771Z,84.92
2018-01-20T11:07:28.450Z,85.40
2018-01-20T11:09:21.775Z,85.44
2018-01-20T11:10:22.346Z,86.16
2018-01-20T11:12:15.084Z,83.69
2018-01-20T11:13:15.046Z,85.87
2018-01-20T11:15:08.362Z,84.26
2018-01-20T11:16:08.344Z,81.51
2018-01-20T11:18:01.740Z,89.76
2018-01-20T11:19:01.856Z,87.20
2018-01-20T11:20:55.037Z,83.12
2018-01-20T11:21:55.062Z,82.50
2018-01-20T11:23:48.348Z,88.39
2018-01-20T11:24:48.438Z,85.06
2018-01-20T11:26:41.622Z,90.95
2018-01-20T11:27:41.603Z,87.82
2018-01-20T11:29:34.952Z,88.20
2018-01-20T11:30:34.976Z,90.00
2018-01-20T11:32:28.337Z,85.97
2018-01-20T11:33:28.267Z,87.20
2018-01-20T11:35:21.597Z,87.24
2018-01-20T11:36:21.557Z,90.57
2018-01-20T11:38:15.223Z,90.57
2018-01-20T11:39:15.186Z,91.14
2018-01-20T11:41:08.554Z,92.37
2018-01-20T11:42:08.493Z,92.09
2018-01-20T11:44:01.817Z,92.18
2018-01-20T11:45:01.791Z,92.75
2018-01-20T11:46:55.224Z,90.57
2018-01-20T11:47:55.126Z,93.51
2018-01-20T11:49:48.423Z,87.72
2018-01-20T11:50:48.407Z,88.29
2018-01-20T11:52:41.873Z,91.14
2018-01-20T11:53:41.745Z,92.18
2018-01-20T11:55:35.111Z,94.18
2018-01-20T11:56:35.087Z,92.28
2018-01-20T11:58:28.444Z,90.57
2018-01-20T11:59:28.429Z,89.14
2018-01-20T12:01:21.757Z,89.53
2018-01-20T12:02:21.707Z,88.57
2018-01-20T12:04:15.071Z,91.14
2018-01-20T12:05:15.020Z,92.09
2018-01-20T12:07:08.361Z,94.84
2018-01-20T12:08:08.347Z,93.04
2018-01-20T12:10:01.685Z,93.60
2018-01-20T12:11:01.633Z,91.14
2018-01-20T12:12:54.971Z,91.24
2018-01-20T12:13:54.976Z,91.99
2018-01-20T12:15:48.288Z,92.13
2018-01-20T12:16:48.243Z,92.23
2018-01-20T12:18:41.588Z,93.13
2018-01-20T12:19:41.568Z,93.56
2018-01-20T12:21:34.932Z,93.56
2018-01-20T12:22:34.878Z,93.51
2018-01-20T12:24:28.204Z,90.80
2018-01-20T12:25:28.182Z,89.38
2018-01-20T12:27:21.512Z,92.13
2018-01-20T12:28:21.482Z,90.90
2018-01-20T12:30:14.806Z,93.94
2018-01-20T12:31:14.772Z,93.84
2018-01-20T12:33:08.127Z,92.80
2018-01-20T12:34:08.073Z,93.08
2018-01-20T12:36:01.397Z,95.94
2018-01-20T12:37:01.377Z,93.23
2018-01-20T12:38:54.715Z,92.27
2018-01-20T12:39:54.678Z,92.85
2018-01-20T12:41:48.002Z,93.79
2018-01-20T12:42:47.998Z,93.70
2018-01-20T12:44:41.324Z,95.36
2018-01-20T12:45:41.276Z,93.37
2018-01-20T12:47:34.625Z,87.90
2018-01-20T12:48:34.604Z,92.18
2018-01-20T12:50:27.929Z,97.31
2018-01-20T12:51:27.899Z,91.23
2018-01-20T12:53:22.221Z,96.50
2018-01-20T12:54:22.188Z,94.27
2018-01-20T12:56:15.537Z,93.04
2018-01-20T12:57:15.508Z,98.83
2018-01-20T12:59:08.831Z,99.78
2018-01-20T13:00:08.798Z,94.46
2018-01-20T13:02:03.151Z,92.94
2018-01-20T13:03:03.106Z,94.84
2018-01-20T13:04:56.452Z,96.55
2018-01-20T13:05:56.405Z,93.89
2018-01-20T13:07:49.780Z,94.84
2018-01-20T13:08:49.743Z,99.40
2018-01-20T13:10:43.056Z,91.42
2018-01-20T13:11:43.035Z,95.70
2018-01-20T13:13:36.379Z,93.41
2018-01-20T13:14:36.346Z,96.84
2018-01-20T13:16:29.679Z,91.23
2018-01-20T13:17:29.654Z,97.27
2018-01-20T13:19:23.046Z,94.03
2018-01-20T13:20:22.961Z,91.38
2018-01-20T13:22:16.309Z,87.14
2018-01-20T13:23:16.270Z,95.79
2018-01-20T13:25:09.633Z,93.13
2018-01-20T13:26:09.587Z,94.93
2018-01-20T13:28:02.930Z,89.38
2018-01-20T13:29:02.877Z,98.07
2018-01-20T13:30:56.650Z,94.98
2018-01-20T13:31:56.588Z,94.23
2018-01-20T13:33:49.935Z,87.01
2018-01-20T13:34:49.914Z,87.29
2018-01-20T13:36:43.255Z,92.71
2018-01-20T13:37:43.205Z,92.99
2018-01-20T13:39:36.690Z,91.28
2018-01-20T13:40:36.568Z,90.71
2018-01-20T13:42:29.911Z,94.89
2018-01-20T13:43:29.871Z,87.38
2018-01-20T13:45:23.295Z,92.80
2018-01-20T13:46:23.272Z,87.95
2018-01-20T13:48:16.607Z,89.47
2018-01-20T13:49:16.575Z,88.15
2018-01-20T13:51:09.898Z,84.53
2018-01-20T13:52:09.894Z,91.94
2018-01-20T13:54:03.215Z,92.42
2018-01-20T13:55:03.184Z,91.94
2018-01-20T13:56:56.498Z,92.04
2018-01-20T13:57:56.478Z,87.67
2018-01-20T13:59:50.420Z,91.85
2018-01-20T14:00:49.791Z,92.99
2018-01-20T14:02:43.117Z,90.14
2018-01-20T14:03:43.091Z,91.66
2018-01-20T14:05:37.184Z,92.80
2018-01-20T14:06:37.119Z,89.95
2018-01-20T14:08:30.481Z,87.29
2018-01-20T14:09:30.455Z,89.00
2018-01-20T14:11:23.811Z,91.85
2018-01-20T14:12:23.751Z,94.13
2018-01-20T14:14:17.136Z,91.19
2018-01-20T14:15:17.127Z,90.14
2018-01-20T14:17:10.513Z,89.95
2018-01-20T14:18:10.414Z,84.53
2018-01-20T14:20:03.749Z,92.90
2018-01-20T14:21:03.747Z,91.56
2018-01-20T14:22:57.075Z,89.86
2018-01-20T14:23:57.036Z,91.66
2018-01-20T14:25:50.371Z,92.71
2018-01-20T14:26:50.349Z,91.19
2018-01-20T14:28:44.057Z,89.00
2018-01-20T14:29:44.403Z,84.63
2018-01-20T14:31:36.998Z,87.01
2018-01-20T14:32:36.953Z,87.95
2018-01-20T14:34:30.307Z,86.67
2018-01-20T14:35:30.280Z,89.90
2018-01-20T14:37:23.598Z,90.05
2018-01-20T14:38:23.932Z,90.23
2018-01-20T14:40:16.912Z,92.61
2018-01-20T14:41:17.085Z,91.47
2018-01-20T14:43:10.198Z,87.34
2018-01-20T14:44:10.174Z,91.42
2018-01-20T14:46:04.526Z,95.46
2018-01-20T14:47:04.498Z,99.35
2018-01-20T14:48:57.830Z,89.76
2018-01-20T14:49:57.794Z,89.67
2018-01-20T14:51:51.121Z,92.42
2018-01-20T14:52:51.099Z,91.38
2018-01-20T14:54:44.711Z,98.21
2018-01-20T14:55:44.404Z,98.31
2018-01-20T14:57:37.750Z,91.47
2018-01-20T14:58:37.717Z,97.07
2018-01-20T15:00:31.062Z,88.24
2018-01-20T15:01:31.028Z,99.26
2018-01-20T15:03:24.361Z,97.45
2018-01-20T15:04:24.315Z,96.79
2018-01-20T15:06:17.632Z,98.59
2018-01-20T15:07:17.615Z,99.44
2018-01-20T15:09:10.934Z,89.47
2018-01-20T15:10:10.895Z,99.92
2018-01-20T15:12:04.227Z,97.45
2018-01-20T15:13:04.218Z,99.64
2018-01-20T15:14:57.564Z,99.99
2018-01-20T15:15:57.518Z,99.44
2018-01-20T15:17:50.845Z,99.99
2018-01-20T15:18:50.826Z,99.99
2018-01-20T15:20:44.167Z,97.50
2018-01-20T15:21:44.125Z,97.50
2018-01-20T15:23:37.444Z,99.99
2018-01-20T15:24:37.432Z,99.11
2018-01-20T15:26:30.781Z,95.60
2018-01-20T15:27:30.729Z,96.50
2018-01-20T15:29:24.054Z,99.21
2018-01-20T15:30:24.026Z,97.27
2018-01-20T15:32:17.375Z,97.69
2018-01-20T15:33:17.334Z,95.98
2018-01-20T15:35:11.687Z,90.28
2018-01-20T15:36:11.644Z,93.70
2018-01-20T15:38:04.975Z,97.17
2018-01-20T15:39:04.935Z,98.59
2018-01-20T15:40:58.491Z,95.75
2018-01-20T15:41:58.245Z,96.93
2018-01-20T15:43:51.575Z,97.41
2018-01-20T15:44:51.581Z,95.79
2018-01-20T15:46:44.882Z,97.12
2018-01-20T15:47:44.849Z,96.36
2018-01-20T15:49:38.192Z,97.12
2018-01-20T15:50:38.155Z,95.41
2018-01-20T15:52:31.489Z,97.31
2018-01-20T15:53:31.460Z,97.22
2018-01-20T15:55:24.811Z,94.84
2018-01-20T15:56:24.763Z,95.60
2018-01-20T15:58:18.112Z,95.22
2018-01-20T15:59:18.074Z,97.22
2018-01-20T16:01:11.416Z,98.07
2018-01-20T16:02:11.396Z,96.45
2018-01-20T16:04:04.718Z,99.58
2018-01-20T16:05:04.703Z,97.88
2018-01-20T16:06:58.026Z,95.41
2018-01-20T16:07:57.990Z,95.22
2018-01-20T16:09:51.305Z,98.54
2018-01-20T16:10:51.308Z,97.88
2018-01-20T16:12:44.641Z,96.26
2018-01-20T16:13:44.590Z,95.60
2018-01-20T16:15:37.925Z,94.84
2018-01-20T16:16:37.930Z,94.46
2018-01-20T16:18:31.237Z,97.97
2018-01-20T16:19:31.197Z,97.88
2018-01-20T16:21:24.534Z,96.74
2018-01-20T16:22:24.513Z,94.18
2018-01-20T16:24:17.855Z,97.78
2018-01-20T16:25:17.813Z,98.64
2018-01-20T16:27:11.137Z,91.24
2018-01-20T16:28:11.126Z,99.02
2018-01-20T16:30:04.470Z,99.58
2018-01-20T16:31:04.432Z,97.88
2018-01-20T16:32:57.741Z,99.99
2018-01-20T16:33:57.770Z,98.07
2018-01-20T16:35:51.078Z,97.02
2018-01-20T16:36:51.055Z,99.02
2018-01-20T16:38:44.368Z,98.54
2018-01-20T16:39:44.342Z,97.12
2018-01-20T16:41:37.672Z,99.30
2018-01-20T16:42:37.638Z,96.55
2018-01-20T16:44:30.464Z,99.99
2018-01-20T16:45:30.440Z,99.99
2018-01-20T16:47:23.806Z,99.99
2018-01-20T16:48:23.756Z,98.07
2018-01-20T16:50:17.191Z,99.21
2018-01-20T16:51:17.068Z,99.87
2018-01-20T16:53:10.414Z,97.26
2018-01-20T16:54:10.368Z,97.83
2018-01-20T16:56:03.685Z,96.64
2018-01-20T16:57:03.674Z,99.99
2018-01-20T16:58:57.011Z,99.30
2018-01-20T16:59:56.969Z,98.54
2018-01-20T17:01:51.178Z,93.51
2018-01-20T17:02:51.155Z,98.83
2018-01-20T17:04:44.492Z,99.99
2018-01-20T17:05:44.454Z,99.58
2018-01-20T17:07:37.277Z,99.26
2018-01-20T17:08:37.303Z,98.64
2018-01-20T17:10:30.610Z,94.74
2018-01-20T17:11:30.575Z,96.64
2018-01-20T17:13:23.891Z,97.78
2018-01-20T17:14:23.869Z,95.03
2018-01-20T17:16:16.734Z,99.63
2018-01-20T17:17:16.701Z,97.55
2018-01-20T17:19:10.123Z,96.78
2018-01-20T17:20:09.981Z,97.60
2018-01-20T17:22:03.320Z,93.89
2018-01-20T17:23:03.281Z,96.45
2018-01-20T17:24:56.613Z,99.99
2018-01-20T17:25:56.580Z,99.99
2018-01-20T17:27:49.432Z,99.97
2018-01-20T17:28:49.386Z,98.02
2018-01-20T17:30:42.724Z,93.80
2018-01-20T17:31:42.692Z,95.79
2018-01-20T17:33:36.025Z,99.99
2018-01-20T17:34:35.981Z,90.76
2018-01-20T17:36:29.320Z,95.98
2018-01-20T17:37:29.293Z,99.99
2018-01-20T17:39:22.631Z,99.99
2018-01-20T17:40:22.592Z,99.99
2018-01-20T17:42:15.951Z,99.99
2018-01-20T17:43:15.885Z,99.99
2018-01-20T17:45:09.262Z,99.99
2018-01-20T17:46:09.203Z,99.99
2018-01-20T17:48:02.532Z,99.91
2018-01-20T17:49:02.501Z,98.68
2018-01-20T17:50:55.855Z,98.59
2018-01-20T17:51:55.819Z,96.45
2018-01-20T17:53:49.146Z,99.87
2018-01-20T17:54:49.117Z,98.68
2018-01-20T17:56:42.466Z,99.11
2018-01-20T17:57:42.423Z,99.99
2018-01-20T17:59:35.744Z,99.99
2018-01-20T18:00:35.712Z,99.30
2018-01-20T18:02:29.053Z,96.93
2018-01-20T18:03:29.015Z,99.99
2018-01-20T18:05:22.333Z,99.99
2018-01-20T18:06:22.304Z,99.99
2018-01-20T18:08:15.653Z,99.99
2018-01-20T18:09:15.609Z,99.99
2018-01-20T18:11:08.937Z,98.92
2018-01-20T18:12:08.918Z,99.99
2018-01-20T18:14:02.385Z,96.45
2018-01-20T18:15:02.213Z,96.45
2018-01-20T18:16:55.550Z,99.99
2018-01-20T18:17:55.513Z,98.07
2018-01-20T18:19:48.860Z,99.99
2018-01-20T18:20:48.815Z,99.97
2018-01-20T18:22:42.159Z,99.99
2018-01-20T18:23:42.130Z,98.83
2018-01-20T18:25:35.462Z,99.99
2018-01-20T18:26:35.460Z,99.99
2018-01-20T18:28:28.948Z,98.26
2018-01-20T18:29:28.937Z,99.49
2018-01-20T18:31:22.607Z,99.99
2018-01-20T18:32:22.569Z,99.30
2018-01-20T18:34:16.638Z,99.99